KSMP

Stampede Pass Airport

Washington, USA
METAR KSMP 170650Z AUTO VRB04KT 10SM BKN009 OVC014 01/00 A2984 RMK AO2 UPB03E37B46E50RAB14E46 CIG 005V012 P0000 T00110000 $
Observed Flight Rules
Dec-17 @ 06:50 UTC (39 minutes ago) Instrument Flight Rules
Wind Visibility Clouds
Variable at 4 knots 10 miles
  • Broken at 900' AGL
  • Overcast at 1,400' AGL
Temperatures Readings Precipitation
Current 1°C / 34°F
Dewpoint 0°C / 32°F
Humidity 93%
Altimeter 29.84" Hg
Pressure 1010 hPa
Elevation 1208
Current Rain 0.005
METAR KSMP 170650Z AUTO VRB04KT 10SM BKN009 OVC014 01/00 A2984 RMK AO2 UPB03E37B46E50RAB14E46 CIG 005V012 P0000 T00110000 $
Observed Flight Rules
Dec-17 @ 06:50 UTC
(39 minutes ago)
IFR
Wind Visibility
Variable at 4 knots 10 miles
Clouds
  • Broken at 900' AGL
  • Overcast at 1,400' AGL
Temperature Dewpoint
1°C / 34°F 0°C / 32°F
Humidity Altimeter Pressure
93% 29.84" Hg 1010 hPa
Current Rain
0.005